sensor_id;sensor_type;location;lat;lon;timestamp;noise_LAeq;noise_LA_min;noise_LA_max;noise_LA01;noise_LA95
43787;Laerm;29409;49.306;8.500;2023-04-03T00:00:57;40.67;35.66;49.04;;
43787;Laerm;29409;49.306;8.500;2023-04-03T00:01:57;38.64;35.36;41.89;;
43787;Laerm;29409;49.306;8.500;2023-04-03T00:02:57;38.85;36.20;41.38;;
43787;Laerm;29409;49.306;8.500;2023-04-03T00:03:58;39.10;35.31;42.09;;
43787;Laerm;29409;49.306;8.500;2023-04-03T00:04:58;38.62;34.31;41.53;;
43787;Laerm;29409;49.306;8.500;2023-04-03T00:05:58;38.62;33.90;41.22;;
43787;Laerm;29409;49.306;8.500;2023-04-03T00:06:59;39.89;35.04;44.69;;
43787;Laerm;29409;49.306;8.500;2023-04-03T00:07:59;38.47;34.69;41.14;;
43787;Laerm;29409;49.306;8.500;2023-04-03T00:09:02;38.96;35.94;43.58;;
43787;Laerm;29409;49.306;8.500;2023-04-03T00:10:02;39.05;35.66;41.75;;
43787;Laerm;29409;49.306;8.500;2023-04-03T00:11:02;39.46;36.20;41.82;;
43787;Laerm;29409;49.306;8.500;2023-04-03T00:12:03;42.07;37.70;45.36;;
43787;Laerm;29409;49.306;8.500;2023-04-03T00:13:04;40.36;35.94;43.86;;
43787;Laerm;29409;49.306;8.500;2023-04-03T00:14:04;40.70;36.45;46.64;;
43787;Laerm;29409;49.306;8.500;2023-04-03T00:15:05;39.19;35.66;42.35;;
43787;Laerm;29409;49.306;8.500;2023-04-03T00:16:06;39.23;35.94;41.96;;
43787;Laerm;29409;49.306;8.500;2023-04-03T00:17:06;40.46;35.94;49.56;;
43787;Laerm;29409;49.306;8.500;2023-04-03T00:18:07;39.05;35.66;42.03;;
43787;Laerm;29409;49.306;8.500;2023-04-03T00:19:07;39.20;35.04;42.35;;
43787;Laerm;29409;49.306;8.500;2023-04-03T00:20:08;39.25;35.66;41.96;;
43787;Laerm;29409;49.306;8.500;2023-04-03T00:21:10;38.92;33.90;41.68;;
43787;Laerm;29409;49.306;8.500;2023-04-03T00:22:12;39.25;35.66;42.47;;
43787;Laerm;29409;49.306;8.500;2023-04-03T00:23:12;40.46;34.69;45.77;;
43787;Laerm;29409;49.306;8.500;2023-04-03T00:24:12;40.12;35.94;43.39;;
43787;Laerm;29409;49.306;8.500;2023-04-03T00:25:12;39.91;36.20;43.68;;
43787;Laerm;29409;49.306;8.500;2023-04-03T00:26:13;39.32;36.20;41.96;;
43787;Laerm;29409;49.306;8.500;2023-04-03T00:27:13;39.17;35.36;41.33;;
43787;Laerm;29409;49.306;8.500;2023-04-03T00:28:13;39.27;35.66;41.53;;
43787;Laerm;29409;49.306;8.500;2023-04-03T00:29:14;39.03;36.34;41.46;;
43787;Laerm;29409;49.306;8.500;2023-04-03T00:30:15;39.29;35.36;41.89;;
43787;Laerm;29409;49.306;8.500;2023-04-03T00:31:16;39.80;36.45;42.65;;
43787;Laerm;29409;49.306;8.500;2023-04-03T00:32:17;39.58;35.94;44.97;;
43787;Laerm;29409;49.306;8.500;2023-04-03T00:33:17;38.76;34.31;41.11;;
43787;Laerm;29409;49.306;8.500;2023-04-03T00:34:21;38.94;35.66;41.14;;
43787;Laerm;29409;49.306;8.500;2023-04-03T00:35:22;38.94;35.04;41.46;;
43787;Laerm;29409;49.306;8.500;2023-04-03T00:36:23;38.87;34.69;41.46;;
43787;Laerm;29409;49.306;8.500;2023-04-03T00:37:23;39.13;35.36;41.38;;
43787;Laerm;29409;49.306;8.500;2023-04-03T00:38:23;39.33;35.66;41.53;;
43787;Laerm;29409;49.306;8.500;2023-04-03T00:39:23;39.19;35.94;41.96;;
43787;Laerm;29409;49.306;8.500;2023-04-03T00:40:25;39.62;35.36;42.41;;
43787;Laerm;29409;49.306;8.500;2023-04-03T00:41:25;39.52;35.94;42.16;;
43787;Laerm;29409;49.306;8.500;2023-04-03T00:42:26;39.96;36.45;44.15;;
43787;Laerm;29409;49.306;8.500;2023-04-03T00:43:27;39.86;35.94;43.34;;
43787;Laerm;29409;49.306;8.500;2023-04-03T00:45:37;40.84;36.20;50.98;;
43787;Laerm;29409;49.306;8.500;2023-04-03T00:46:39;38.79;35.04;41.38;;
43787;Laerm;29409;49.306;8.500;2023-04-03T00:47:39;38.93;35.04;41.46;;
43787;Laerm;29409;49.306;8.500;2023-04-03T00:48:42;38.70;35.04;41.61;;
43787;Laerm;29409;49.306;8.500;2023-04-03T00:49:43;38.68;33.90;41.53;;
43787;Laerm;29409;49.306;8.500;2023-04-03T00:50:44;39.64;35.36;45.48;;
43787;Laerm;29409;49.306;8.500;2023-04-03T00:51:45;39.56;35.94;47.34;;
43787;Laerm;29409;49.306;8.500;2023-04-03T00:52:45;39.47;35.86;43.68;;
43787;Laerm;29409;49.306;8.500;2023-04-03T00:53:50;42.02;36.91;60.97;;
43787;Laerm;29409;49.306;8.500;2023-04-03T00:54:52;38.87;35.36;41.68;;
43787;Laerm;29409;49.306;8.500;2023-04-03T00:55:54;39.65;35.36;50.84;;
43787;Laerm;29409;49.306;8.500;2023-04-03T00:56:55;39.74;35.66;43.24;;
43787;Laerm;29409;49.306;8.500;2023-04-03T00:57:57;39.70;35.94;42.65;;
43787;Laerm;29409;49.306;8.500;2023-04-03T00:58:59;40.03;35.94;42.93;;
43787;Laerm;29409;49.306;8.500;2023-04-03T01:00:03;39.46;35.94;42.47;;
43787;Laerm;29409;49.306;8.500;2023-04-03T01:01:05;39.10;35.04;41.75;;
43787;Laerm;29409;49.306;8.500;2023-04-03T01:02:06;39.33;35.66;42.47;;
43787;Laerm;29409;49.306;8.500;2023-04-03T01:03:07;40.64;35.36;46.50;;
43787;Laerm;29409;49.306;8.500;2023-04-03T01:04:25;40.03;36.91;42.71;;
43787;Laerm;29409;49.306;8.500;2023-04-03T01:05:27;39.69;36.45;42.53;;
43787;Laerm;29409;49.306;8.500;2023-04-03T01:06:28;40.14;35.66;42.53;;
43787;Laerm;29409;49.306;8.500;2023-04-03T01:07:31;39.47;35.66;41.96;;
43787;Laerm;29409;49.306;8.500;2023-04-03T01:08:31;39.19;33.90;42.03;;
43787;Laerm;29409;49.306;8.500;2023-04-03T01:09:32;39.55;36.20;42.47;;
43787;Laerm;29409;49.306;8.500;2023-04-03T01:10:33;39.39;35.04;42.03;;
43787;Laerm;29409;49.306;8.500;2023-04-03T01:11:33;39.16;33.90;41.68;;
43787;Laerm;29409;49.306;8.500;2023-04-03T01:12:35;38.98;35.36;42.22;;
43787;Laerm;29409;49.306;8.500;2023-04-03T01:13:36;39.31;35.94;41.96;;
43787;Laerm;29409;49.306;8.500;2023-04-03T01:14:36;39.47;35.04;42.53;;
43787;Laerm;29409;49.306;8.500;2023-04-03T01:15:36;39.55;36.20;54.64;;
43787;Laerm;29409;49.306;8.500;2023-04-03T01:16:36;39.82;35.66;59.23;;
43787;Laerm;29409;49.306;8.500;2023-04-03T01:18:40;39.67;36.45;42.29;;
43787;Laerm;29409;49.306;8.500;2023-04-03T01:19:41;39.51;36.69;41.89;;
43787;Laerm;29409;49.306;8.500;2023-04-03T01:20:57;39.68;35.66;42.76;;
43787;Laerm;29409;49.306;8.500;2023-04-03T01:22:41;39.57;35.94;42.09;;
43787;Laerm;29409;49.306;8.500;2023-04-03T01:24:51;39.74;36.45;42.47;;
43787;Laerm;29409;49.306;8.500;2023-04-03T01:25:54;39.53;36.69;42.41;;
43787;Laerm;29409;49.306;8.500;2023-04-03T01:26:55;40.05;36.69;42.88;;
43787;Laerm;29409;49.306;8.500;2023-04-03T01:27:55;39.76;36.45;42.65;;
43787;Laerm;29409;49.306;8.500;2023-04-03T01:28:55;39.92;36.91;42.98;;
43787;Laerm;29409;49.306;8.500;2023-04-03T01:29:58;39.82;36.69;42.53;;
43787;Laerm;29409;49.306;8.500;2023-04-03T01:31:09;40.20;36.45;42.71;;
43787;Laerm;29409;49.306;8.500;2023-04-03T01:32:12;39.76;36.45;42.03;;
43787;Laerm;29409;49.306;8.500;2023-04-03T01:33:13;40.33;36.69;42.41;;
43787;Laerm;29409;49.306;8.500;2023-04-03T01:34:14;40.32;37.52;42.16;;
43787;Laerm;29409;49.306;8.500;2023-04-03T01:35:14;40.85;36.91;44.47;;
43787;Laerm;29409;49.306;8.500;2023-04-03T01:36:17;47.04;36.20;59.40;;
43787;Laerm;29409;49.306;8.500;2023-04-03T01:37:17;42.11;36.91;51.49;;
43787;Laerm;29409;49.306;8.500;2023-04-03T01:38:17;40.41;36.91;44.11;;
43787;Laerm;29409;49.306;8.500;2023-04-03T01:39:18;39.39;36.34;42.36;;
43787;Laerm;29409;49.306;8.500;2023-04-03T01:40:18;40.06;36.91;42.35;;
43787;Laerm;29409;49.306;8.500;2023-04-03T01:41:19;39.38;35.94;42.41;;
43787;Laerm;29409;49.306;8.500;2023-04-03T01:42:20;40.83;36.69;47.50;;
43787;Laerm;29409;49.306;8.500;2023-04-03T01:43:21;39.66;35.66;42.03;;
43787;Laerm;29409;49.306;8.500;2023-04-03T01:44:21;39.79;35.94;43.54;;
43787;Laerm;29409;49.306;8.500;2023-04-03T01:45:21;39.36;36.45;43.39;;
43787;Laerm;29409;49.306;8.500;2023-04-03T01:46:21;39.63;36.20;42.06;;
43787;Laerm;29409;49.306;8.500;2023-04-03T01:47:22;39.85;36.45;42.41;;
43787;Laerm;29409;49.306;8.500;2023-04-03T01:48:22;40.15;36.91;42.88;;
43787;Laerm;29409;49.306;8.500;2023-04-03T01:49:23;40.36;37.70;42.47;;
43787;Laerm;29409;49.306;8.500;2023-04-03T01:50:23;40.24;37.32;42.71;;
43787;Laerm;29409;49.306;8.500;2023-04-03T01:51:23;40.20;36.69;42.71;;
43787;Laerm;29409;49.306;8.500;2023-04-03T01:52:23;39.83;36.69;42.09;;
43787;Laerm;29409;49.306;8.500;2023-04-03T01:53:24;40.01;36.69;43.86;;
43787;Laerm;29409;49.306;8.500;2023-04-03T01:54:24;39.92;36.45;42.47;;
43787;Laerm;29409;49.306;8.500;2023-04-03T01:55:24;41.70;37.52;52.36;;
43787;Laerm;29409;49.306;8.500;2023-04-03T01:56:25;45.33;37.70;58.22;;
43787;Laerm;29409;49.306;8.500;2023-04-03T01:57:25;39.89;36.45;42.29;;
43787;Laerm;29409;49.306;8.500;2023-04-03T01:58:25;39.51;35.94;41.82;;
43787;Laerm;29409;49.306;8.500;2023-04-03T01:59:26;41.03;36.20;50.61;;
43787;Laerm;29409;49.306;8.500;2023-04-03T02:00:26;39.80;36.69;43.90;;
43787;Laerm;29409;49.306;8.500;2023-04-03T02:01:27;40.92;37.12;45.23;;
43787;Laerm;29409;49.306;8.500;2023-04-03T02:02:27;41.16;37.32;46.84;;
43787;Laerm;29409;49.306;8.500;2023-04-03T02:03:27;40.25;36.69;43.63;;
43787;Laerm;29409;49.306;8.500;2023-04-03T02:04:28;39.91;36.91;42.36;;
43787;Laerm;29409;49.306;8.500;2023-04-03T02:05:28;39.82;36.69;42.41;;
43787;Laerm;29409;49.306;8.500;2023-04-03T02:06:28;40.17;37.52;42.35;;
43787;Laerm;29409;49.306;8.500;2023-04-03T02:07:29;40.58;37.32;43.93;;
43787;Laerm;29409;49.306;8.500;2023-04-03T02:08:29;39.60;36.91;42.03;;
43787;Laerm;29409;49.306;8.500;2023-04-03T02:09:29;39.32;35.94;41.75;;
43787;Laerm;29409;49.306;8.500;2023-04-03T02:10:30;39.96;35.36;45.20;;
43787;Laerm;29409;49.306;8.500;2023-04-03T02:11:30;39.66;35.94;42.03;;
43787;Laerm;29409;49.306;8.500;2023-04-03T02:12:31;39.95;36.45;42.03;;
43787;Laerm;29409;49.306;8.500;2023-04-03T02:13:31;46.02;37.52;65.84;;
43787;Laerm;29409;49.306;8.500;2023-04-03T02:14:31;40.42;36.45;43.24;;
43787;Laerm;29409;49.306;8.500;2023-04-03T02:15:32;40.25;36.69;42.65;;
43787;Laerm;29409;49.306;8.500;2023-04-03T02:16:32;39.96;37.12;42.65;;
43787;Laerm;29409;49.306;8.500;2023-04-03T02:17:32;40.55;37.52;43.44;;
43787;Laerm;29409;49.306;8.500;2023-04-03T02:18:32;40.36;37.70;42.82;;
43787;Laerm;29409;49.306;8.500;2023-04-03T02:19:33;41.75;37.70;46.38;;
43787;Laerm;29409;49.306;8.500;2023-04-03T02:20:33;42.78;39.21;53.40;;
43787;Laerm;29409;49.306;8.500;2023-04-03T02:21:33;41.55;38.67;46.25;;
43787;Laerm;29409;49.306;8.500;2023-04-03T02:22:34;41.65;38.52;46.50;;
43787;Laerm;29409;49.306;8.500;2023-04-03T02:23:34;45.48;39.34;56.72;;
43787;Laerm;29409;49.306;8.500;2023-04-03T02:24:36;41.68;38.05;47.91;;
43787;Laerm;29409;49.306;8.500;2023-04-03T02:25:39;40.79;38.21;42.98;;
43787;Laerm;29409;49.306;8.500;2023-04-03T02:26:39;41.84;38.37;44.23;;
43787;Laerm;29409;49.306;8.500;2023-04-03T02:27:39;41.70;38.67;44.65;;
43787;Laerm;29409;49.306;8.500;2023-04-03T02:28:40;42.63;38.67;49.03;;
43787;Laerm;29409;49.306;8.500;2023-04-03T02:29:41;40.97;37.70;42.93;;
43787;Laerm;29409;49.306;8.500;2023-04-03T02:30:43;40.77;37.52;47.30;;
43787;Laerm;29409;49.306;8.500;2023-04-03T02:31:44;41.37;37.32;46.59;;
43787;Laerm;29409;49.306;8.500;2023-04-03T02:32:44;41.33;38.05;43.90;;
43787;Laerm;29409;49.306;8.500;2023-04-03T02:33:45;43.67;38.67;51.50;;
43787;Laerm;29409;49.306;8.500;2023-04-03T02:34:45;41.83;38.67;47.36;;
43787;Laerm;29409;49.306;8.500;2023-04-03T02:35:46;41.01;37.88;43.09;;
43787;Laerm;29409;49.306;8.500;2023-04-03T02:36:53;43.37;39.58;50.12;;
43787;Laerm;29409;49.306;8.500;2023-04-03T02:37:53;42.17;38.37;48.48;;
43787;Laerm;29409;49.306;8.500;2023-04-03T02:38:53;41.41;38.05;44.15;;
43787;Laerm;29409;49.306;8.500;2023-04-03T02:39:54;41.41;38.67;43.68;;
43787;Laerm;29409;49.306;8.500;2023-04-03T02:40:59;41.89;38.05;55.09;;
43787;Laerm;29409;49.306;8.500;2023-04-03T02:42:00;41.52;38.67;48.02;;
43787;Laerm;29409;49.306;8.500;2023-04-03T02:43:00;40.63;37.52;42.93;;
43787;Laerm;29409;49.306;8.500;2023-04-03T02:44:03;42.00;38.05;47.96;;
43787;Laerm;29409;49.306;8.500;2023-04-03T02:45:04;42.03;38.81;49.53;;
43787;Laerm;29409;49.306;8.500;2023-04-03T02:46:05;41.06;38.05;45.89;;
43787;Laerm;29409;49.306;8.500;2023-04-03T02:47:06;43.25;39.21;54.19;;
43787;Laerm;29409;49.306;8.500;2023-04-03T02:48:06;42.09;37.88;47.40;;
43787;Laerm;29409;49.306;8.500;2023-04-03T02:49:06;41.69;38.81;44.35;;
43787;Laerm;29409;49.306;8.500;2023-04-03T02:50:07;43.76;40.43;49.29;;
43787;Laerm;29409;49.306;8.500;2023-04-03T02:51:07;41.63;38.52;44.54;;
43787;Laerm;29409;49.306;8.500;2023-04-03T02:52:07;41.33;38.37;47.46;;
43787;Laerm;29409;49.306;8.500;2023-04-03T02:53:07;41.18;38.21;46.94;;
43787;Laerm;29409;49.306;8.500;2023-04-03T02:54:08;41.19;38.05;44.08;;
43787;Laerm;29409;49.306;8.500;2023-04-03T02:55:08;40.56;37.52;42.88;;
43787;Laerm;29409;49.306;8.500;2023-04-03T02:56:08;42.27;39.58;45.69;;
43787;Laerm;29409;49.306;8.500;2023-04-03T02:57:09;41.99;37.88;50.29;;
43787;Laerm;29409;49.306;8.500;2023-04-03T02:58:10;43.07;38.95;54.03;;
43787;Laerm;29409;49.306;8.500;2023-04-03T02:59:10;41.63;38.18;47.88;;
43787;Laerm;29409;49.306;8.500;2023-04-03T03:00:10;40.90;37.52;43.39;;
43787;Laerm;29409;49.306;8.500;2023-04-03T03:01:11;40.38;37.52;42.88;;
43787;Laerm;29409;49.306;8.500;2023-04-03T03:02:11;42.77;38.05;48.63;;
43787;Laerm;29409;49.306;8.500;2023-04-03T03:03:12;41.19;37.32;45.63;;
43787;Laerm;29409;49.306;8.500;2023-04-03T03:04:14;40.74;37.88;42.82;;
43787;Laerm;29409;49.306;8.500;2023-04-03T03:05:14;42.05;39.08;45.94;;
43787;Laerm;29409;49.306;8.500;2023-04-03T03:06:15;42.41;39.34;46.73;;
43787;Laerm;29409;49.306;8.500;2023-04-03T03:07:16;42.61;39.21;49.23;;
43787;Laerm;29409;49.306;8.500;2023-04-03T03:08:17;43.56;39.21;51.43;;
43787;Laerm;29409;49.306;8.500;2023-04-03T03:09:20;41.54;38.37;45.33;;
43787;Laerm;29409;49.306;8.500;2023-04-03T03:10:20;43.10;38.81;48.64;;
43787;Laerm;29409;49.306;8.500;2023-04-03T03:11:21;42.56;39.46;45.66;;
43787;Laerm;29409;49.306;8.500;2023-04-03T03:12:21;43.08;39.70;48.76;;
43787;Laerm;29409;49.306;8.500;2023-04-03T03:13:23;43.90;40.71;51.35;;
43787;Laerm;29409;49.306;8.500;2023-04-03T03:14:23;42.88;39.92;46.97;;
43787;Laerm;29409;49.306;8.500;2023-04-03T03:15:24;42.82;38.81;51.67;;
43787;Laerm;29409;49.306;8.500;2023-04-03T03:16:24;42.33;38.52;51.37;;
43787;Laerm;29409;49.306;8.500;2023-04-03T03:17:24;43.34;39.34;48.49;;
43787;Laerm;29409;49.306;8.500;2023-04-03T03:18:25;42.78;40.13;46.95;;
43787;Laerm;29409;49.306;8.500;2023-04-03T03:19:25;42.69;39.21;47.48;;
43787;Laerm;29409;49.306;8.500;2023-04-03T03:20:25;42.64;39.58;47.65;;
43787;Laerm;29409;49.306;8.500;2023-04-03T03:21:26;42.49;38.81;47.12;;
43787;Laerm;29409;49.306;8.500;2023-04-03T03:22:27;43.71;39.92;53.93;;
43787;Laerm;29409;49.306;8.500;2023-04-03T03:23:28;42.55;39.46;48.88;;
43787;Laerm;29409;49.306;8.500;2023-04-03T03:24:28;42.85;39.08;51.45;;
43787;Laerm;29409;49.306;8.500;2023-04-03T03:25:29;43.68;40.53;53.75;;
43787;Laerm;29409;49.306;8.500;2023-04-03T03:26:29;42.52;39.46;47.16;;
43787;Laerm;29409;49.306;8.500;2023-04-03T03:27:30;42.82;40.33;49.81;;
43787;Laerm;29409;49.306;8.500;2023-04-03T03:28:30;43.45;40.23;48.57;;
43787;Laerm;29409;49.306;8.500;2023-04-03T03:29:31;43.20;40.03;48.66;;
43787;Laerm;29409;49.306;8.500;2023-04-03T03:30:31;42.31;39.34;45.20;;
43787;Laerm;29409;49.306;8.500;2023-04-03T03:31:31;44.12;40.03;51.87;;
43787;Laerm;29409;49.306;8.500;2023-04-03T03:32:33;43.57;40.23;53.77;;
43787;Laerm;29409;49.306;8.500;2023-04-03T03:33:33;47.47;39.08;61.79;;
43787;Laerm;29409;49.306;8.500;2023-04-03T03:34:35;43.53;39.34;52.48;;
43787;Laerm;29409;49.306;8.500;2023-04-03T03:35:35;45.19;40.89;54.28;;
43787;Laerm;29409;49.306;8.500;2023-04-03T03:36:36;45.22;41.68;53.97;;
43787;Laerm;29409;49.306;8.500;2023-04-03T03:37:36;44.30;39.81;51.84;;
43787;Laerm;29409;49.306;8.500;2023-04-03T03:38:36;42.42;39.58;48.13;;
43787;Laerm;29409;49.306;8.500;2023-04-03T03:39:37;44.32;39.70;55.48;;
43787;Laerm;29409;49.306;8.500;2023-04-03T03:40:37;40.49;36.20;43.86;;
43787;Laerm;29409;49.306;8.500;2023-04-03T03:41:37;42.10;37.88;47.95;;
43787;Laerm;29409;49.306;8.500;2023-04-03T03:42:38;42.67;39.21;49.16;;
43787;Laerm;29409;49.306;8.500;2023-04-03T03:43:38;42.77;38.67;49.41;;
43787;Laerm;29409;49.306;8.500;2023-04-03T03:44:39;41.70;38.37;46.07;;
43787;Laerm;29409;49.306;8.500;2023-04-03T03:45:39;43.13;39.81;49.72;;
43787;Laerm;29409;49.306;8.500;2023-04-03T03:46:39;42.92;39.21;50.06;;
43787;Laerm;29409;49.306;8.500;2023-04-03T03:47:40;42.06;39.21;45.77;;
43787;Laerm;29409;49.306;8.500;2023-04-03T03:48:40;42.73;39.68;50.05;;
43787;Laerm;29409;49.306;8.500;2023-04-03T03:49:40;43.09;39.99;46.59;;
43787;Laerm;29409;49.306;8.500;2023-04-03T03:50:41;45.23;40.43;54.37;;
43787;Laerm;29409;49.306;8.500;2023-04-03T03:51:41;43.40;39.58;53.37;;
43787;Laerm;29409;49.306;8.500;2023-04-03T03:52:41;43.12;39.70;54.35;;
43787;Laerm;29409;49.306;8.500;2023-04-03T03:53:41;43.43;40.03;50.31;;
43787;Laerm;29409;49.306;8.500;2023-04-03T03:54:42;44.32;41.14;53.79;;
43787;Laerm;29409;49.306;8.500;2023-04-03T03:55:43;41.87;38.67;47.79;;
43787;Laerm;29409;49.306;8.500;2023-04-03T03:56:43;48.29;40.03;63.50;;
43787;Laerm;29409;49.306;8.500;2023-04-03T03:57:44;46.68;39.46;67.25;;
43787;Laerm;29409;49.306;8.500;2023-04-03T03:58:44;46.03;40.71;60.31;;
43787;Laerm;29409;49.306;8.500;2023-04-03T03:59:45;50.15;41.75;67.07;;
43787;Laerm;29409;49.306;8.500;2023-04-03T04:00:46;44.54;40.23;53.53;;
43787;Laerm;29409;49.306;8.500;2023-04-03T04:01:46;41.91;39.21;46.28;;
43787;Laerm;29409;49.306;8.500;2023-04-03T04:02:47;41.44;38.05;44.51;;
43787;Laerm;29409;49.306;8.500;2023-04-03T04:03:47;42.49;39.34;49.53;;
43787;Laerm;29409;49.306;8.500;2023-04-03T04:04:48;42.88;39.34;50.67;;
43787;Laerm;29409;49.306;8.500;2023-04-03T04:05:48;43.73;39.81;51.12;;
43787;Laerm;29409;49.306;8.500;2023-04-03T04:06:48;47.82;40.62;65.64;;
43787;Laerm;29409;49.306;8.500;2023-04-03T04:07:50;51.45;41.14;67.62;;
43787;Laerm;29409;49.306;8.500;2023-04-03T04:08:51;43.04;39.46;52.23;;
43787;Laerm;29409;49.306;8.500;2023-04-03T04:09:51;42.89;40.33;50.03;;
43787;Laerm;29409;49.306;8.500;2023-04-03T04:10:51;43.60;40.33;48.29;;
43787;Laerm;29409;49.306;8.500;2023-04-03T04:11:51;43.91;40.33;51.13;;
43787;Laerm;29409;49.306;8.500;2023-04-03T04:12:52;44.89;41.30;50.18;;
43787;Laerm;29409;49.306;8.500;2023-04-03T04:13:52;45.93;41.22;54.81;;
43787;Laerm;29409;49.306;8.500;2023-04-03T04:14:52;42.57;38.95;47.91;;
43787;Laerm;29409;49.306;8.500;2023-04-03T04:15:52;42.26;39.70;47.30;;
43787;Laerm;29409;49.306;8.500;2023-04-03T04:16:53;43.43;40.13;50.49;;
43787;Laerm;29409;49.306;8.500;2023-04-03T04:17:53;44.00;40.23;50.62;;
43787;Laerm;29409;49.306;8.500;2023-04-03T04:18:53;45.88;41.06;55.29;;
43787;Laerm;29409;49.306;8.500;2023-04-03T04:19:54;43.43;40.43;49.89;;
43787;Laerm;29409;49.306;8.500;2023-04-03T04:20:54;43.37;40.33;50.76;;
43787;Laerm;29409;49.306;8.500;2023-04-03T04:21:55;44.21;40.62;51.43;;
43787;Laerm;29409;49.306;8.500;2023-04-03T04:22:55;43.63;40.33;49.43;;
43787;Laerm;29409;49.306;8.500;2023-04-03T04:23:55;45.02;40.98;51.80;;
43787;Laerm;29409;49.306;8.500;2023-04-03T04:24:55;45.06;41.30;54.96;;
43787;Laerm;29409;49.306;8.500;2023-04-03T04:25:56;43.68;38.52;51.22;;
43787;Laerm;29409;49.306;8.500;2023-04-03T04:26:56;42.87;40.13;53.92;;
43787;Laerm;29409;49.306;8.500;2023-04-03T04:27:56;47.33;39.34;57.87;;
43787;Laerm;29409;49.306;8.500;2023-04-03T04:28:58;47.33;41.61;59.85;;
43787;Laerm;29409;49.306;8.500;2023-04-03T04:29:59;45.37;41.82;52.29;;
43787;Laerm;29409;49.306;8.500;2023-04-03T04:31:00;44.18;41.14;48.90;;
43787;Laerm;29409;49.306;8.500;2023-04-03T04:32:01;44.58;41.30;51.15;;
43787;Laerm;29409;49.306;8.500;2023-04-03T04:33:02;44.07;41.30;48.90;;
43787;Laerm;29409;49.306;8.500;2023-04-03T04:34:03;46.53;41.46;54.64;;
43787;Laerm;29409;49.306;8.500;2023-04-03T04:35:03;44.24;40.71;53.79;;
43787;Laerm;29409;49.306;8.500;2023-04-03T04:36:04;45.44;41.38;61.59;;
43787;Laerm;29409;49.306;8.500;2023-04-03T04:37:04;43.83;41.06;55.12;;
43787;Laerm;29409;49.306;8.500;2023-04-03T04:38:04;44.13;40.89;48.98;;
43787;Laerm;29409;49.306;8.500;2023-04-03T04:39:05;47.50;41.46;60.65;;
43787;Laerm;29409;49.306;8.500;2023-04-03T04:40:06;45.35;41.61;60.60;;
43787;Laerm;29409;49.306;8.500;2023-04-03T04:41:06;46.29;41.61;54.47;;
43787;Laerm;29409;49.306;8.500;2023-04-03T04:42:07;43.91;40.53;53.16;;
43787;Laerm;29409;49.306;8.500;2023-04-03T04:43:12;43.03;39.81;49.94;;
43787;Laerm;29409;49.306;8.500;2023-04-03T04:44:14;43.08;40.23;47.12;;
43787;Laerm;29409;49.306;8.500;2023-04-03T04:45:14;44.09;40.62;54.36;;
43787;Laerm;29409;49.306;8.500;2023-04-03T04:46:15;43.93;41.11;51.35;;
43787;Laerm;29409;49.306;8.500;2023-04-03T04:47:18;47.52;42.16;58.68;;
43787;Laerm;29409;49.306;8.500;2023-04-03T04:48:18;45.81;41.14;51.67;;
43787;Laerm;29409;49.306;8.500;2023-04-03T04:49:18;46.53;41.30;59.38;;
43787;Laerm;29409;49.306;8.500;2023-04-03T04:50:19;44.78;42.22;49.51;;
43787;Laerm;29409;49.306;8.500;2023-04-03T04:51:19;44.03;41.22;50.75;;
43787;Laerm;29409;49.306;8.500;2023-04-03T04:52:20;48.54;42.09;59.28;;
43787;Laerm;29409;49.306;8.500;2023-04-03T04:53:20;45.90;41.96;56.20;;
43787;Laerm;29409;49.306;8.500;2023-04-03T04:54:20;44.41;41.82;52.27;;
43787;Laerm;29409;49.306;8.500;2023-04-03T04:55:21;45.41;41.53;52.57;;
43787;Laerm;29409;49.306;8.500;2023-04-03T04:56:21;44.72;41.61;49.85;;
43787;Laerm;29409;49.306;8.500;2023-04-03T04:57:21;48.41;41.14;62.50;;
43787;Laerm;29409;49.306;8.500;2023-04-03T04:58:22;44.82;41.22;52.30;;
43787;Laerm;29409;49.306;8.500;2023-04-03T04:59:22;44.13;41.30;49.19;;
43787;Laerm;29409;49.306;8.500;2023-04-03T05:00:22;46.40;40.79;54.12;;
43787;Laerm;29409;49.306;8.500;2023-04-03T05:01:23;44.64;41.53;51.51;;
43787;Laerm;29409;49.306;8.500;2023-04-03T05:02:23;46.08;41.75;51.84;;
43787;Laerm;29409;49.306;8.500;2023-04-03T05:03:25;45.65;41.14;53.41;;
43787;Laerm;29409;49.306;8.500;2023-04-03T05:04:25;48.48;42.35;59.48;;
43787;Laerm;29409;49.306;8.500;2023-04-03T05:05:26;44.90;41.38;53.07;;
43787;Laerm;29409;49.306;8.500;2023-04-03T05:06:26;44.40;41.68;49.88;;
43787;Laerm;29409;49.306;8.500;2023-04-03T05:07:26;44.69;41.06;49.16;;
43787;Laerm;29409;49.306;8.500;2023-04-03T05:08:27;46.39;40.80;58.42;;
43787;Laerm;29409;49.306;8.500;2023-04-03T05:09:27;45.36;42.59;50.35;;
43787;Laerm;29409;49.306;8.500;2023-04-03T05:10:28;49.70;42.29;64.23;;
43787;Laerm;29409;49.306;8.500;2023-04-03T05:11:28;44.39;41.22;51.64;;
43787;Laerm;29409;49.306;8.500;2023-04-03T05:12:28;44.89;41.61;61.93;;
43787;Laerm;29409;49.306;8.500;2023-04-03T05:13:29;47.09;42.16;64.00;;
43787;Laerm;29409;49.306;8.500;2023-04-03T05:14:29;45.41;41.68;58.58;;
43787;Laerm;29409;49.306;8.500;2023-04-03T05:15:30;44.34;42.41;48.20;;
43787;Laerm;29409;49.306;8.500;2023-04-03T05:16:30;44.43;41.89;50.94;;
43787;Laerm;29409;49.306;8.500;2023-04-03T05:17:30;44.96;42.71;49.14;;
43787;Laerm;29409;49.306;8.500;2023-04-03T05:18:31;45.90;42.30;55.04;;
43787;Laerm;29409;49.306;8.500;2023-04-03T05:19:31;44.28;41.68;49.14;;
43787;Laerm;29409;49.306;8.500;2023-04-03T05:20:32;44.67;42.16;50.60;;
43787;Laerm;29409;49.306;8.500;2023-04-03T05:21:33;45.43;41.53;51.90;;
43787;Laerm;29409;49.306;8.500;2023-04-03T05:22:33;44.71;41.53;49.07;;
43787;Laerm;29409;49.306;8.500;2023-04-03T05:23:33;44.65;41.46;52.08;;
43787;Laerm;29409;49.306;8.500;2023-04-03T05:24:33;46.97;42.22;65.06;;
43787;Laerm;29409;49.306;8.500;2023-04-03T05:25:34;47.25;41.53;64.21;;
43787;Laerm;29409;49.306;8.500;2023-04-03T05:26:34;45.78;42.79;52.76;;
43787;Laerm;29409;49.306;8.500;2023-04-03T05:27:34;45.47;42.53;51.00;;
43787;Laerm;29409;49.306;8.500;2023-04-03T05:28:35;43.35;41.14;48.43;;
43787;Laerm;29409;49.306;8.500;2023-04-03T05:29:35;44.38;41.75;48.67;;
43787;Laerm;29409;49.306;8.500;2023-04-03T05:30:35;46.82;42.71;54.15;;
43787;Laerm;29409;49.306;8.500;2023-04-03T05:31:35;46.56;42.53;55.01;;
43787;Laerm;29409;49.306;8.500;2023-04-03T05:32:36;45.93;42.65;54.16;;
43787;Laerm;29409;49.306;8.500;2023-04-03T05:33:36;44.27;41.96;49.60;;
43787;Laerm;29409;49.306;8.500;2023-04-03T05:34:36;44.06;41.38;53.21;;
43787;Laerm;29409;49.306;8.500;2023-04-03T05:35:37;44.32;41.53;52.91;;
43787;Laerm;29409;49.306;8.500;2023-04-03T05:36:41;46.18;41.68;61.67;;
43787;Laerm;29409;49.306;8.500;2023-04-03T05:37:41;51.26;41.38;66.38;;
43787;Laerm;29409;49.306;8.500;2023-04-03T05:38:41;48.19;42.03;58.10;;
43787;Laerm;29409;49.306;8.500;2023-04-03T05:39:42;46.06;41.89;57.51;;
43787;Laerm;29409;49.306;8.500;2023-04-03T05:40:42;49.15;42.41;63.88;;
43787;Laerm;29409;49.306;8.500;2023-04-03T05:41:42;46.01;42.29;56.62;;
43787;Laerm;29409;49.306;8.500;2023-04-03T05:42:43;51.03;42.65;64.58;;
43787;Laerm;29409;49.306;8.500;2023-04-03T05:43:44;48.42;42.09;64.49;;
43787;Laerm;29409;49.306;8.500;2023-04-03T05:44:44;43.36;41.14;50.53;;